sensor_id;sensor_type;location;lat;lon;timestamp;pressure;altitude;pressure_sealevel;temperature;humidity
3654;BME280;70277;54.302;10.064;2024-02-23T00:00:35;97380.19;;;10.90;63.68
3654;BME280;70277;54.302;10.064;2024-02-23T00:03:02;97371.59;;;10.88;64.11
3654;BME280;70277;54.302;10.064;2024-02-23T00:05:28;97412.59;;;10.78;63.90
3654;BME280;70277;54.302;10.064;2024-02-23T00:07:55;97413.94;;;10.51;63.43
3654;BME280;70277;54.302;10.064;2024-02-23T00:10:22;97395.19;;;10.24;62.56
3654;BME280;70277;54.302;10.064;2024-02-23T00:12:48;97386.56;;;10.01;63.13
3654;BME280;70277;54.302;10.064;2024-02-23T00:15:15;97401.91;;;10.18;63.13
3654;BME280;70277;54.302;10.064;2024-02-23T00:17:41;97398.69;;;9.95;63.21
3654;BME280;70277;54.302;10.064;2024-02-23T00:20:09;97402.88;;;9.84;63.76
3654;BME280;70277;54.302;10.064;2024-02-23T00:22:38;97404.31;;;9.82;62.96
3654;BME280;70277;54.302;10.064;2024-02-23T00:25:05;97395.41;;;10.11;62.33
3654;BME280;70277;54.302;10.064;2024-02-23T00:27:32;97405.53;;;9.93;62.55
3654;BME280;70277;54.302;10.064;2024-02-23T00:29:58;97391.81;;;10.07;62.62
3654;BME280;70277;54.302;10.064;2024-02-23T00:32:25;97392.16;;;9.96;63.05
3654;BME280;70277;54.302;10.064;2024-02-23T00:34:51;97383.94;;;10.14;62.81
3654;BME280;70277;54.302;10.064;2024-02-23T00:37:18;97396.59;;;10.01;63.62
3654;BME280;70277;54.302;10.064;2024-02-23T00:39:44;97418.03;;;10.06;63.49
3654;BME280;70277;54.302;10.064;2024-02-23T00:42:11;97389.31;;;9.93;64.84
3654;BME280;70277;54.302;10.064;2024-02-23T00:44:37;97416.72;;;9.83;65.10
3654;BME280;70277;54.302;10.064;2024-02-23T00:47:04;97449.88;;;9.53;67.16
3654;BME280;70277;54.302;10.064;2024-02-23T00:49:31;97450.59;;;9.07;70.52
3654;BME280;70277;54.302;10.064;2024-02-23T00:51:57;97492.78;;;8.51;74.79
3654;BME280;70277;54.302;10.064;2024-02-23T00:54:24;97524.44;;;7.88;79.23
3654;BME280;70277;54.302;10.064;2024-02-23T00:56:50;97520.16;;;7.56;82.47
3654;BME280;70277;54.302;10.064;2024-02-23T00:59:20;97525.19;;;7.26;81.88
3654;BME280;70277;54.302;10.064;2024-02-23T01:01:47;97504.72;;;7.16;81.24
3654;BME280;70277;54.302;10.064;2024-02-23T01:04:14;97520.63;;;7.13;80.73
3654;BME280;70277;54.302;10.064;2024-02-23T01:06:40;97528.84;;;7.07;80.11
3654;BME280;70277;54.302;10.064;2024-02-23T01:09:07;97526.69;;;7.41;80.16
3654;BME280;70277;54.302;10.064;2024-02-23T01:11:34;97518.91;;;7.62;79.19
3654;BME280;70277;54.302;10.064;2024-02-23T01:14:00;97527.63;;;7.14;78.27
3654;BME280;70277;54.302;10.064;2024-02-23T01:16:27;97522.78;;;7.47;78.18
3654;BME280;70277;54.302;10.064;2024-02-23T01:18:53;97546.09;;;7.51;76.70
3654;BME280;70277;54.302;10.064;2024-02-23T01:21:20;97549.50;;;7.43;76.80
3654;BME280;70277;54.302;10.064;2024-02-23T01:23:46;97568.97;;;7.40;74.77
3654;BME280;70277;54.302;10.064;2024-02-23T01:26:13;97567.63;;;7.51;74.28
3654;BME280;70277;54.302;10.064;2024-02-23T01:28:40;97595.09;;;7.71;74.08
3654;BME280;70277;54.302;10.064;2024-02-23T01:31:09;97603.94;;;7.40;73.20
3654;BME280;70277;54.302;10.064;2024-02-23T01:33:37;97584.00;;;7.41;72.79
3654;BME280;70277;54.302;10.064;2024-02-23T01:36:05;97596.72;;;7.49;72.76
3654;BME280;70277;54.302;10.064;2024-02-23T01:38:32;97592.72;;;7.24;72.65
3654;BME280;70277;54.302;10.064;2024-02-23T01:40:59;97614.88;;;7.07;73.28
3654;BME280;70277;54.302;10.064;2024-02-23T01:43:26;97600.13;;;7.19;73.17
3654;BME280;70277;54.302;10.064;2024-02-23T01:45:53;97646.06;;;7.09;73.61
3654;BME280;70277;54.302;10.064;2024-02-23T01:48:20;97640.16;;;7.06;72.59
3654;BME280;70277;54.302;10.064;2024-02-23T01:50:47;97660.47;;;7.13;73.28
3654;BME280;70277;54.302;10.064;2024-02-23T01:53:14;97653.31;;;7.08;73.73
3654;BME280;70277;54.302;10.064;2024-02-23T01:55:41;97668.16;;;6.92;73.98
3654;BME280;70277;54.302;10.064;2024-02-23T01:58:08;97682.44;;;6.92;74.65
3654;BME280;70277;54.302;10.064;2024-02-23T02:00:35;97689.16;;;7.03;74.37
3654;BME280;70277;54.302;10.064;2024-02-23T02:03:03;97701.06;;;6.75;74.99
3654;BME280;70277;54.302;10.064;2024-02-23T02:05:30;97738.69;;;6.75;75.32
3654;BME280;70277;54.302;10.064;2024-02-23T02:07:57;97744.53;;;6.63;75.36
3654;BME280;70277;54.302;10.064;2024-02-23T02:10:27;97760.25;;;6.70;76.07
3654;BME280;70277;54.302;10.064;2024-02-23T02:12:53;97750.66;;;6.50;76.62
3654;BME280;70277;54.302;10.064;2024-02-23T02:15:20;97760.41;;;6.46;77.42
3654;BME280;70277;54.302;10.064;2024-02-23T02:17:48;97778.56;;;6.68;77.91
3654;BME280;70277;54.302;10.064;2024-02-23T02:20:17;97766.84;;;6.31;77.63
3654;BME280;70277;54.302;10.064;2024-02-23T02:22:45;97809.22;;;6.67;76.89
3654;BME280;70277;54.302;10.064;2024-02-23T02:25:14;97802.44;;;6.55;76.67
3654;BME280;70277;54.302;10.064;2024-02-23T02:27:41;97810.53;;;6.69;77.31
3654;BME280;70277;54.302;10.064;2024-02-23T02:30:09;97833.81;;;6.41;77.62
3654;BME280;70277;54.302;10.064;2024-02-23T02:32:35;97849.31;;;6.30;78.48
3654;BME280;70277;54.302;10.064;2024-02-23T02:35:03;97857.66;;;6.29;80.13
3654;BME280;70277;54.302;10.064;2024-02-23T02:37:30;97853.03;;;6.15;81.41
3654;BME280;70277;54.302;10.064;2024-02-23T02:39:56;97868.31;;;5.96;81.49
3654;BME280;70277;54.302;10.064;2024-02-23T02:42:23;97871.00;;;6.15;81.75
3654;BME280;70277;54.302;10.064;2024-02-23T02:44:49;97881.81;;;6.29;81.49
3654;BME280;70277;54.302;10.064;2024-02-23T02:47:16;97894.03;;;6.21;81.87
3654;BME280;70277;54.302;10.064;2024-02-23T02:49:43;97884.66;;;6.19;82.08
3654;BME280;70277;54.302;10.064;2024-02-23T02:52:10;97918.38;;;5.82;82.87
3654;BME280;70277;54.302;10.064;2024-02-23T02:54:37;97914.63;;;6.07;82.50
3654;BME280;70277;54.302;10.064;2024-02-23T02:57:03;97918.53;;;5.90;82.75
3654;BME280;70277;54.302;10.064;2024-02-23T02:59:34;97927.97;;;5.88;83.24
3654;BME280;70277;54.302;10.064;2024-02-23T03:02:01;97959.84;;;5.70;83.76
3654;BME280;70277;54.302;10.064;2024-02-23T03:04:28;97978.56;;;5.76;84.49
3654;BME280;70277;54.302;10.064;2024-02-23T03:06:54;97968.16;;;5.98;83.40
3654;BME280;70277;54.302;10.064;2024-02-23T03:09:21;97948.22;;;5.80;82.66
3654;BME280;70277;54.302;10.064;2024-02-23T03:11:47;97946.47;;;5.89;81.45
3654;BME280;70277;54.302;10.064;2024-02-23T03:14:14;97962.00;;;5.92;80.74
3654;BME280;70277;54.302;10.064;2024-02-23T03:16:40;97969.41;;;5.77;80.36
3654;BME280;70277;54.302;10.064;2024-02-23T03:19:08;97959.91;;;6.13;78.91
3654;BME280;70277;54.302;10.064;2024-02-23T03:21:35;97950.13;;;6.23;78.33
3654;BME280;70277;54.302;10.064;2024-02-23T03:24:05;97969.22;;;5.97;78.23
3654;BME280;70277;54.302;10.064;2024-02-23T03:26:31;97959.97;;;6.08;77.94
3654;BME280;70277;54.302;10.064;2024-02-23T03:28:58;97967.16;;;6.13;78.37
3654;BME280;70277;54.302;10.064;2024-02-23T03:31:25;97974.25;;;6.04;78.45
3654;BME280;70277;54.302;10.064;2024-02-23T03:33:51;97976.00;;;5.95;78.35
3654;BME280;70277;54.302;10.064;2024-02-23T03:36:18;97980.06;;;6.11;78.19
3654;BME280;70277;54.302;10.064;2024-02-23T03:38:44;97994.81;;;6.13;78.24
3654;BME280;70277;54.302;10.064;2024-02-23T03:41:11;98010.75;;;6.05;78.72
3654;BME280;70277;54.302;10.064;2024-02-23T03:43:37;98008.50;;;6.12;78.02
3654;BME280;70277;54.302;10.064;2024-02-23T03:46:06;98021.91;;;5.93;78.77
3654;BME280;70277;54.302;10.064;2024-02-23T03:48:32;98032.63;;;5.93;78.02
3654;BME280;70277;54.302;10.064;2024-02-23T03:50:59;98030.47;;;5.90;78.33
3654;BME280;70277;54.302;10.064;2024-02-23T03:53:25;98033.09;;;6.24;77.76
3654;BME280;70277;54.302;10.064;2024-02-23T03:55:52;98046.06;;;6.17;77.54
3654;BME280;70277;54.302;10.064;2024-02-23T03:58:19;98046.84;;;6.18;77.90
3654;BME280;70277;54.302;10.064;2024-02-23T04:00:46;98066.34;;;6.04;77.23
3654;BME280;70277;54.302;10.064;2024-02-23T04:03:12;98058.25;;;6.09;77.09
3654;BME280;70277;54.302;10.064;2024-02-23T04:05:39;98056.88;;;6.36;77.05
3654;BME280;70277;54.302;10.064;2024-02-23T04:08:08;98083.28;;;6.00;77.63
3654;BME280;70277;54.302;10.064;2024-02-23T04:10:35;98093.06;;;6.14;76.90
3654;BME280;70277;54.302;10.064;2024-02-23T04:13:01;98074.63;;;6.32;77.11
3654;BME280;70277;54.302;10.064;2024-02-23T04:15:28;98087.22;;;6.36;77.10
3654;BME280;70277;54.302;10.064;2024-02-23T04:17:54;98093.97;;;6.53;76.44
3654;BME280;70277;54.302;10.064;2024-02-23T04:20:21;98100.44;;;6.52;76.56
3654;BME280;70277;54.302;10.064;2024-02-23T04:22:48;98121.84;;;6.09;76.50
3654;BME280;70277;54.302;10.064;2024-02-23T04:25:14;98124.34;;;6.53;75.94
3654;BME280;70277;54.302;10.064;2024-02-23T04:27:41;98111.69;;;6.30;76.29
3654;BME280;70277;54.302;10.064;2024-02-23T04:30:08;98129.47;;;6.26;76.45
3654;BME280;70277;54.302;10.064;2024-02-23T04:32:34;98138.63;;;6.49;75.61
3654;BME280;70277;54.302;10.064;2024-02-23T04:35:01;98140.41;;;6.34;76.36
3654;BME280;70277;54.302;10.064;2024-02-23T04:37:28;98151.50;;;6.28;76.84
3654;BME280;70277;54.302;10.064;2024-02-23T04:39:56;98152.06;;;6.25;77.82
3654;BME280;70277;54.302;10.064;2024-02-23T04:42:23;98170.91;;;6.20;77.15
3654;BME280;70277;54.302;10.064;2024-02-23T04:44:49;98165.88;;;6.13;77.70
3654;BME280;70277;54.302;10.064;2024-02-23T04:47:16;98156.28;;;6.31;77.18
3654;BME280;70277;54.302;10.064;2024-02-23T04:49:42;98173.63;;;6.14;77.29
3654;BME280;70277;54.302;10.064;2024-02-23T04:52:09;98179.84;;;6.39;76.32
3654;BME280;70277;54.302;10.064;2024-02-23T04:54:35;98182.53;;;6.39;75.89
3654;BME280;70277;54.302;10.064;2024-02-23T04:57:02;98183.16;;;6.31;76.44
3654;BME280;70277;54.302;10.064;2024-02-23T04:59:28;98187.59;;;6.17;76.60
3654;BME280;70277;54.302;10.064;2024-02-23T05:01:58;98193.09;;;6.30;76.76
3654;BME280;70277;54.302;10.064;2024-02-23T05:04:25;98177.63;;;6.17;76.77
3654;BME280;70277;54.302;10.064;2024-02-23T05:06:53;98195.63;;;6.46;76.39
3654;BME280;70277;54.302;10.064;2024-02-23T05:09:20;98202.75;;;6.02;76.19
3654;BME280;70277;54.302;10.064;2024-02-23T05:11:47;98213.19;;;6.33;75.47
3654;BME280;70277;54.302;10.064;2024-02-23T05:14:14;98209.19;;;6.01;75.87
3654;BME280;70277;54.302;10.064;2024-02-23T05:16:40;98202.00;;;6.26;75.40
3654;BME280;70277;54.302;10.064;2024-02-23T05:19:07;98211.84;;;6.35;75.28
3654;BME280;70277;54.302;10.064;2024-02-23T05:21:33;98220.53;;;6.27;74.96
3654;BME280;70277;54.302;10.064;2024-02-23T05:24:00;98223.81;;;6.19;75.31
3654;BME280;70277;54.302;10.064;2024-02-23T05:26:26;98230.72;;;5.96;76.32
3654;BME280;70277;54.302;10.064;2024-02-23T05:28:53;98227.13;;;6.06;75.36
3654;BME280;70277;54.302;10.064;2024-02-23T05:31:20;98240.28;;;6.07;75.46
3654;BME280;70277;54.302;10.064;2024-02-23T05:33:46;98249.94;;;6.08;75.56
3654;BME280;70277;54.302;10.064;2024-02-23T05:36:15;98247.06;;;6.34;75.43
3654;BME280;70277;54.302;10.064;2024-02-23T05:38:42;98247.38;;;6.56;74.65
3654;BME280;70277;54.302;10.064;2024-02-23T05:41:12;98270.91;;;6.06;75.09
3654;BME280;70277;54.302;10.064;2024-02-23T05:43:39;98264.72;;;6.06;75.70
3654;BME280;70277;54.302;10.064;2024-02-23T05:46:06;98255.31;;;6.08;75.51
3654;BME280;70277;54.302;10.064;2024-02-23T05:48:32;98252.38;;;6.10;75.57
3654;BME280;70277;54.302;10.064;2024-02-23T05:50:59;98262.13;;;5.96;76.20
3654;BME280;70277;54.302;10.064;2024-02-23T05:53:25;98285.50;;;5.95;75.71
3654;BME280;70277;54.302;10.064;2024-02-23T05:55:52;98287.16;;;6.25;75.51
3654;BME280;70277;54.302;10.064;2024-02-23T05:58:19;98290.22;;;6.08;74.82
3654;BME280;70277;54.302;10.064;2024-02-23T06:00:47;98294.66;;;6.23;75.51
3654;BME280;70277;54.302;10.064;2024-02-23T06:03:13;98301.97;;;6.18;75.23
3654;BME280;70277;54.302;10.064;2024-02-23T06:05:40;98305.41;;;5.79;75.60
3654;BME280;70277;54.302;10.064;2024-02-23T06:08:07;98306.91;;;6.00;75.13
3654;BME280;70277;54.302;10.064;2024-02-23T06:10:33;98319.28;;;6.01;75.58
3654;BME280;70277;54.302;10.064;2024-02-23T06:13:00;98320.25;;;6.15;74.44
3654;BME280;70277;54.302;10.064;2024-02-23T06:15:30;98329.78;;;5.98;74.71
3654;BME280;70277;54.302;10.064;2024-02-23T06:17:56;98321.72;;;5.92;75.03
3654;BME280;70277;54.302;10.064;2024-02-23T06:20:23;98333.63;;;6.21;74.59
3654;BME280;70277;54.302;10.064;2024-02-23T06:22:49;98346.00;;;6.22;74.21
3654;BME280;70277;54.302;10.064;2024-02-23T06:25:16;98341.78;;;6.05;74.11
3654;BME280;70277;54.302;10.064;2024-02-23T06:27:42;98353.91;;;6.42;73.99
3654;BME280;70277;54.302;10.064;2024-02-23T06:30:09;98367.97;;;6.29;73.50
3654;BME280;70277;54.302;10.064;2024-02-23T06:32:37;98334.75;;;6.14;74.27
3654;BME280;70277;54.302;10.064;2024-02-23T06:35:04;98367.69;;;6.30;74.30
3654;BME280;70277;54.302;10.064;2024-02-23T06:37:32;98377.13;;;6.28;73.28
3654;BME280;70277;54.302;10.064;2024-02-23T06:39:59;98379.41;;;6.45;73.36
3654;BME280;70277;54.302;10.064;2024-02-23T06:42:25;98391.44;;;6.13;73.21
3654;BME280;70277;54.302;10.064;2024-02-23T06:44:52;98408.16;;;6.44;73.47
3654;BME280;70277;54.302;10.064;2024-02-23T06:47:20;98395.94;;;6.23;73.39
3654;BME280;70277;54.302;10.064;2024-02-23T06:49:46;98403.91;;;6.33;73.71
3654;BME280;70277;54.302;10.064;2024-02-23T06:52:13;98415.50;;;6.28;74.17
3654;BME280;70277;54.302;10.064;2024-02-23T06:54:40;98425.56;;;6.57;73.26
3654;BME280;70277;54.302;10.064;2024-02-23T06:57:06;98437.53;;;6.30;74.03
3654;BME280;70277;54.302;10.064;2024-02-23T06:59:33;98435.66;;;6.26;74.58
3654;BME280;70277;54.302;10.064;2024-02-23T07:02:00;98417.41;;;6.28;74.00
3654;BME280;70277;54.302;10.064;2024-02-23T07:04:26;98450.69;;;6.27;74.29
3654;BME280;70277;54.302;10.064;2024-02-23T07:06:55;98458.09;;;6.50;73.71
3654;BME280;70277;54.302;10.064;2024-02-23T07:09:21;98459.50;;;6.43;73.55
3654;BME280;70277;54.302;10.064;2024-02-23T07:11:48;98476.56;;;6.12;74.54
3654;BME280;70277;54.302;10.064;2024-02-23T07:14:15;98501.72;;;6.32;75.02
3654;BME280;70277;54.302;10.064;2024-02-23T07:16:43;98473.38;;;6.00;76.18
3654;BME280;70277;54.302;10.064;2024-02-23T07:19:10;98489.47;;;6.00;76.00
3654;BME280;70277;54.302;10.064;2024-02-23T07:21:36;98497.56;;;5.85;75.09
3654;BME280;70277;54.302;10.064;2024-02-23T07:24:07;98503.47;;;5.92;75.45
3654;BME280;70277;54.302;10.064;2024-02-23T07:26:33;98509.31;;;6.14;74.98
3654;BME280;70277;54.302;10.064;2024-02-23T07:29:00;98513.38;;;6.07;75.26
3654;BME280;70277;54.302;10.064;2024-02-23T07:31:27;98527.63;;;5.82;75.38
3654;BME280;70277;54.302;10.064;2024-02-23T07:33:53;98548.03;;;5.93;76.26
3654;BME280;70277;54.302;10.064;2024-02-23T07:36:20;98536.75;;;5.96;75.44
3654;BME280;70277;54.302;10.064;2024-02-23T07:38:47;98541.28;;;6.06;76.68
3654;BME280;70277;54.302;10.064;2024-02-23T07:41:14;98540.47;;;6.15;76.97
3654;BME280;70277;54.302;10.064;2024-02-23T07:43:41;98539.72;;;5.95;77.89
3654;BME280;70277;54.302;10.064;2024-02-23T07:46:08;98543.72;;;5.92;78.76
3654;BME280;70277;54.302;10.064;2024-02-23T07:48:35;98538.38;;;5.77;78.27
3654;BME280;70277;54.302;10.064;2024-02-23T07:51:03;98587.19;;;6.14;77.18
3654;BME280;70277;54.302;10.064;2024-02-23T07:53:31;98564.66;;;5.85;75.85
3654;BME280;70277;54.302;10.064;2024-02-23T07:55:59;98575.59;;;6.29;75.21
3654;BME280;70277;54.302;10.064;2024-02-23T07:58:28;98599.00;;;6.19;74.22
3654;BME280;70277;54.302;10.064;2024-02-23T08:00:55;98583.88;;;6.43;74.03
3654;BME280;70277;54.302;10.064;2024-02-23T08:03:21;98577.16;;;6.46;73.04
3654;BME280;70277;54.302;10.064;2024-02-23T08:05:48;98582.69;;;6.70;72.82
3654;BME280;70277;54.302;10.064;2024-02-23T08:08:14;98594.78;;;6.67;73.08
3654;BME280;70277;54.302;10.064;2024-02-23T08:10:41;98601.34;;;6.41;72.92
3654;BME280;70277;54.302;10.064;2024-02-23T08:13:07;98613.69;;;6.47;73.15
3654;BME280;70277;54.302;10.064;2024-02-23T08:15:36;98593.03;;;6.32;72.87
3654;BME280;70277;54.302;10.064;2024-02-23T08:18:03;98614.53;;;6.42;72.04
3654;BME280;70277;54.302;10.064;2024-02-23T08:20:30;98622.00;;;6.50;71.43
3654;BME280;70277;54.302;10.064;2024-02-23T08:22:56;98609.84;;;6.68;71.57
3654;BME280;70277;54.302;10.064;2024-02-23T08:25:23;98611.25;;;6.50;72.04
3654;BME280;70277;54.302;10.064;2024-02-23T08:27:49;98610.69;;;6.58;71.22
3654;BME280;70277;54.302;10.064;2024-02-23T08:30:16;98621.38;;;6.74;70.47
3654;BME280;70277;54.302;10.064;2024-02-23T08:32:42;98626.41;;;7.35;70.41
3654;BME280;70277;54.302;10.064;2024-02-23T08:35:09;98627.13;;;7.06;70.00
3654;BME280;70277;54.302;10.064;2024-02-23T08:37:36;98630.44;;;6.93;69.14
3654;BME280;70277;54.302;10.064;2024-02-23T08:40:03;98644.91;;;7.02;69.87
3654;BME280;70277;54.302;10.064;2024-02-23T08:42:30;98641.66;;;7.05;68.85
3654;BME280;70277;54.302;10.064;2024-02-23T08:44:56;98644.84;;;7.13;69.90
3654;BME280;70277;54.302;10.064;2024-02-23T08:47:23;98663.06;;;7.26;69.97
3654;BME280;70277;54.302;10.064;2024-02-23T08:49:50;98650.19;;;7.18;69.72
3654;BME280;70277;54.302;10.064;2024-02-23T08:52:17;98662.59;;;7.14;70.02
3654;BME280;70277;54.302;10.064;2024-02-23T08:54:43;98668.44;;;7.31;68.85
3654;BME280;70277;54.302;10.064;2024-02-23T08:57:10;98673.13;;;7.05;68.88
3654;BME280;70277;54.302;10.064;2024-02-23T08:59:36;98669.03;;;7.13;69.55
3654;BME280;70277;54.302;10.064;2024-02-23T09:02:03;98679.09;;;6.92;69.65
3654;BME280;70277;54.302;10.064;2024-02-23T09:04:30;98685.56;;;7.45;69.02
3654;BME280;70277;54.302;10.064;2024-02-23T09:06:56;98692.66;;;8.05;68.17
3654;BME280;70277;54.302;10.064;2024-02-23T09:09:23;98685.31;;;7.81;68.76
3654;BME280;70277;54.302;10.064;2024-02-23T09:11:51;98685.34;;;7.76;67.86
3654;BME280;70277;54.302;10.064;2024-02-23T09:14:18;98693.03;;;8.22;67.24
3654;BME280;70277;54.302;10.064;2024-02-23T09:16:44;98690.66;;;8.50;66.71
3654;BME280;70277;54.302;10.064;2024-02-23T09:19:14;98707.13;;;8.14;66.31
3654;BME280;70277;54.302;10.064;2024-02-23T09:21:41;98713.72;;;7.97;67.26
3654;BME280;70277;54.302;10.064;2024-02-23T09:24:08;98702.59;;;8.43;66.20
3654;BME280;70277;54.302;10.064;2024-02-23T09:26:34;98716.88;;;8.68;65.83
3654;BME280;70277;54.302;10.064;2024-02-23T09:29:01;98715.16;;;9.01;64.00
3654;BME280;70277;54.302;10.064;2024-02-23T09:31:27;98731.47;;;8.67;64.15
3654;BME280;70277;54.302;10.064;2024-02-23T09:33:57;98715.81;;;8.40;64.95
3654;BME280;70277;54.302;10.064;2024-02-23T09:36:24;98732.03;;;8.64;63.66
3654;BME280;70277;54.302;10.064;2024-02-23T09:38:51;98720.13;;;9.13;62.57
3654;BME280;70277;54.302;10.064;2024-02-23T09:41:22;98756.00;;;8.65;63.61
3654;BME280;70277;54.302;10.064;2024-02-23T09:43:49;98745.44;;;8.69;64.67
3654;BME280;70277;54.302;10.064;2024-02-23T09:46:17;98762.00;;;8.57;64.81
3654;BME280;70277;54.302;10.064;2024-02-23T09:48:44;98765.75;;;8.27;64.81
3654;BME280;70277;54.302;10.064;2024-02-23T09:51:12;98769.56;;;8.21;64.40
3654;BME280;70277;54.302;10.064;2024-02-23T09:53:39;98765.84;;;8.51;63.94
3654;BME280;70277;54.302;10.064;2024-02-23T09:56:05;98772.13;;;8.41;63.94
3654;BME280;70277;54.302;10.064;2024-02-23T09:58:34;98775.44;;;8.92;63.43
3654;BME280;70277;54.302;10.064;2024-02-23T10:01:03;98780.69;;;8.49;63.09
3654;BME280;70277;54.302;10.064;2024-02-23T10:03:30;98777.47;;;9.48;62.43
3654;BME280;70277;54.302;10.064;2024-02-23T10:05:57;98787.72;;;9.27;60.69
3654;BME280;70277;54.302;10.064;2024-02-23T10:08:24;98823.38;;;8.71;62.12
3654;BME280;70277;54.302;10.064;2024-02-23T10:10:50;98806.78;;;9.36;61.37
3654;BME280;70277;54.302;10.064;2024-02-23T10:13:27;98809.13;;;9.18;62.04
3654;BME280;70277;54.302;10.064;2024-02-23T10:15:55;98816.53;;;9.31;62.42
3654;BME280;70277;54.302;10.064;2024-02-23T10:18:40;98828.94;;;8.84;62.33
3654;BME280;70277;54.302;10.064;2024-02-23T10:21:07;98834.00;;;9.15;62.24
3654;BME280;70277;54.302;10.064;2024-02-23T10:23:33;98836.00;;;9.04;61.78
3654;BME280;70277;54.302;10.064;2024-02-23T10:26:07;98847.78;;;8.55;63.66
3654;BME280;70277;54.302;10.064;2024-02-23T10:28:37;98859.09;;;8.86;63.32
3654;BME280;70277;54.302;10.064;2024-02-23T10:31:07;98862.22;;;8.30;63.19
3654;BME280;70277;54.302;10.064;2024-02-23T10:33:37;98870.28;;;8.35;63.39
3654;BME280;70277;54.302;10.064;2024-02-23T10:36:06;98865.06;;;8.83;63.77
3654;BME280;70277;54.302;10.064;2024-02-23T10:38:35;98859.16;;;8.03;64.28
3654;BME280;70277;54.302;10.064;2024-02-23T10:41:05;98877.66;;;8.19;64.68
3654;BME280;70277;54.302;10.064;2024-02-23T10:43:38;98873.50;;;8.37;64.10
3654;BME280;70277;54.302;10.064;2024-02-23T10:46:09;98891.06;;;8.30;64.64
3654;BME280;70277;54.302;10.064;2024-02-23T10:48:41;98883.97;;;7.94;64.50
3654;BME280;70277;54.302;10.064;2024-02-23T10:51:10;98901.19;;;8.48;63.58
3654;BME280;70277;54.302;10.064;2024-02-23T10:53:40;98901.25;;;8.43;63.91
3654;BME280;70277;54.302;10.064;2024-02-23T10:56:07;98899.84;;;8.51;64.46
3654;BME280;70277;54.302;10.064;2024-02-23T10:58:34;98913.75;;;8.63;63.43
3654;BME280;70277;54.302;10.064;2024-02-23T11:01:02;98906.69;;;8.28;63.93
3654;BME280;70277;54.302;10.064;2024-02-23T11:03:31;98915.88;;;8.27;63.81
3654;BME280;70277;54.302;10.064;2024-02-23T11:05:59;98941.22;;;8.20;64.31
3654;BME280;70277;54.302;10.064;2024-02-23T11:08:29;98915.41;;;8.09;64.68
3654;BME280;70277;54.302;10.064;2024-02-23T11:10:56;98916.66;;;8.32;64.37
3654;BME280;70277;54.302;10.064;2024-02-23T11:13:30;98917.31;;;8.58;63.95
3654;BME280;70277;54.302;10.064;2024-02-23T11:16:04;98929.03;;;8.38;63.97
3654;BME280;70277;54.302;10.064;2024-02-23T11:18:32;98923.59;;;8.83;63.05
3654;BME280;70277;54.302;10.064;2024-02-23T11:21:01;98915.31;;;8.74;63.18
3654;BME280;70277;54.302;10.064;2024-02-23T11:23:41;98919.72;;;9.52;61.77
3654;BME280;70277;54.302;10.064;2024-02-23T11:26:12;98913.44;;;9.04;61.69
3654;BME280;70277;54.302;10.064;2024-02-23T11:28:49;98908.63;;;9.01;62.63
3654;BME280;70277;54.302;10.064;2024-02-23T11:31:23;98925.09;;;8.10;63.36
3654;BME280;70277;54.302;10.064;2024-02-23T11:33:52;98911.19;;;7.93;63.79
3654;BME280;70277;54.302;10.064;2024-02-23T11:36:28;98935.97;;;8.50;63.80
3654;BME280;70277;54.302;10.064;2024-02-23T11:38:59;98932.28;;;8.75;62.31
3654;BME280;70277;54.302;10.064;2024-02-23T11:41:28;98931.44;;;9.14;61.80
3654;BME280;70277;54.302;10.064;2024-02-23T11:43:56;98930.38;;;8.80;61.77
3654;BME280;70277;54.302;10.064;2024-02-23T11:46:22;98917.31;;;8.58;61.76
3654;BME280;70277;54.302;10.064;2024-02-23T11:48:49;98931.59;;;8.59;62.95
3654;BME280;70277;54.302;10.064;2024-02-23T11:51:23;98920.94;;;8.78;63.23
3654;BME280;70277;54.302;10.064;2024-02-23T11:53:53;98918.94;;;8.94;63.04
3654;BME280;70277;54.302;10.064;2024-02-23T11:56:22;98926.03;;;9.43;62.40
3654;BME280;70277;54.302;10.064;2024-02-23T11:58:49;98919.75;;;8.94;61.07
3654;BME280;70277;54.302;10.064;2024-02-23T12:01:15;98918.81;;;9.38;60.01
3654;BME280;70277;54.302;10.064;2024-02-23T12:03:42;98912.31;;;9.63;59.53
3654;BME280;70277;54.302;10.064;2024-02-23T12:06:10;98926.38;;;9.60;59.89
3654;BME280;70277;54.302;10.064;2024-02-23T12:08:37;98919.44;;;9.54;58.38
3654;BME280;70277;54.302;10.064;2024-02-23T12:11:06;98925.75;;;9.15;59.94
3654;BME280;70277;54.302;10.064;2024-02-23T12:13:36;98933.44;;;9.32;60.20
3654;BME280;70277;54.302;10.064;2024-02-23T12:16:03;98923.38;;;8.79;60.48
3654;BME280;70277;54.302;10.064;2024-02-23T12:18:33;98932.56;;;9.07;60.08
3654;BME280;70277;54.302;10.064;2024-02-23T12:21:06;98930.06;;;9.16;60.76
3654;BME280;70277;54.302;10.064;2024-02-23T12:23:40;98938.03;;;9.02;60.82
3654;BME280;70277;54.302;10.064;2024-02-23T12:26:08;98930.28;;;9.49;59.68
3654;BME280;70277;54.302;10.064;2024-02-23T12:28:36;98933.25;;;9.23;59.62
3654;BME280;70277;54.302;10.064;2024-02-23T12:31:04;98936.31;;;9.41;59.80
3654;BME280;70277;54.302;10.064;2024-02-23T12:33:32;98946.22;;;8.87;59.36
3654;BME280;70277;54.302;10.064;2024-02-23T12:35:59;98925.94;;;9.53;59.44
3654;BME280;70277;54.302;10.064;2024-02-23T12:38:25;98930.59;;;10.14;58.09
3654;BME280;70277;54.302;10.064;2024-02-23T12:40:52;98922.75;;;9.46;57.62
3654;BME280;70277;54.302;10.064;2024-02-23T12:43:19;98912.34;;;9.05;58.08
3654;BME280;70277;54.302;10.064;2024-02-23T12:45:52;98935.75;;;9.44;58.40
3654;BME280;70277;54.302;10.064;2024-02-23T12:48:19;98933.38;;;8.74;59.41
3654;BME280;70277;54.302;10.064;2024-02-23T12:50:47;98934.06;;;9.24;59.54
3654;BME280;70277;54.302;10.064;2024-02-23T12:53:34;98927.88;;;9.47;60.00
3654;BME280;70277;54.302;10.064;2024-02-23T12:56:06;98939.91;;;9.02;60.77
3654;BME280;70277;54.302;10.064;2024-02-23T12:58:38;98949.44;;;9.23;60.67
3654;BME280;70277;54.302;10.064;2024-02-23T13:01:05;98945.19;;;8.83;61.27
3654;BME280;70277;54.302;10.064;2024-02-23T13:03:34;98941.13;;;8.85;61.80
3654;BME280;70277;54.302;10.064;2024-02-23T13:06:01;98958.72;;;9.12;61.06
3654;BME280;70277;54.302;10.064;2024-02-23T13:08:29;98950.34;;;8.79;60.91
3654;BME280;70277;54.302;10.064;2024-02-23T13:10:56;98955.72;;;8.84;61.49